createdAt,value
2023-02-13T00:00:35.285Z,91.09
2023-02-13T00:03:03.005Z,91.31
2023-02-13T00:05:29.929Z,91.37
2023-02-13T00:07:57.372Z,91.28
2023-02-13T00:10:24.623Z,91.58
2023-02-13T00:12:51.345Z,91.33
2023-02-13T00:15:18.403Z,91.07
2023-02-13T00:17:45.097Z,91.24
2023-02-13T00:20:12.529Z,91.61
2023-02-13T00:22:39.686Z,91.46
2023-02-13T00:25:08.008Z,91.77
2023-02-13T00:27:34.902Z,92.50
2023-02-13T00:30:02.637Z,92.44
2023-02-13T00:32:29.448Z,91.93
2023-02-13T00:34:56.501Z,92.12
2023-02-13T00:37:23.115Z,92.24
2023-02-13T00:39:52.818Z,92.19
2023-02-13T00:42:24.057Z,92.09
2023-02-13T00:44:50.908Z,92.04
2023-02-13T00:47:17.877Z,91.82
2023-02-13T00:49:45.208Z,91.78
2023-02-13T00:52:12.307Z,92.20
2023-02-13T00:54:39.142Z,92.10
2023-02-13T00:57:07.624Z,92.39
2023-02-13T00:59:34.729Z,92.46
2023-02-13T01:02:02.018Z,92.67
2023-02-13T01:04:29.898Z,92.98
2023-02-13T01:06:58.084Z,92.71
2023-02-13T01:09:25.581Z,93.09
2023-02-13T01:11:52.465Z,92.87
2023-02-13T01:14:19.469Z,93.04
2023-02-13T01:16:49.583Z,93.03
2023-02-13T01:19:16.886Z,93.51
2023-02-13T01:21:44.525Z,93.81
2023-02-13T01:24:11.825Z,93.65
2023-02-13T01:26:38.813Z,93.37
2023-02-13T01:29:09.878Z,93.44
2023-02-13T01:31:36.958Z,93.71
2023-02-13T01:34:04.013Z,94.10
2023-02-13T01:36:30.901Z,94.52
2023-02-13T01:38:58.952Z,94.73
2023-02-13T01:41:27.262Z,94.70
2023-02-13T01:43:55.779Z,94.72
2023-02-13T01:46:37.176Z,95.06
2023-02-13T01:49:18.675Z,94.78
2023-02-13T01:51:49.200Z,95.35
2023-02-13T01:54:21.498Z,94.87
2023-02-13T01:56:52.040Z,95.65
2023-02-13T01:59:25.426Z,95.33
2023-02-13T02:01:53.728Z,95.95
2023-02-13T02:04:25.400Z,96.12
2023-02-13T02:07:00.192Z,96.57
2023-02-13T02:09:35.354Z,95.87
2023-02-13T02:12:35.244Z,96.57
2023-02-13T02:15:06.093Z,95.99
2023-02-13T02:17:33.781Z,96.11
2023-02-13T02:20:12.333Z,96.81
2023-02-13T02:23:07.383Z,97.29
2023-02-13T02:26:04.640Z,97.15
2023-02-13T02:29:08.236Z,97.65
2023-02-13T02:32:01.176Z,97.47
2023-02-13T02:34:54.890Z,98.50
2023-02-13T02:37:48.843Z,99.66
2023-02-13T02:41:11.373Z,99.96
2023-02-13T02:44:05.416Z,100.00
2023-02-13T02:47:00.118Z,100.00
2023-02-13T02:50:00.652Z,100.00
2023-02-13T02:52:39.598Z,100.00
2023-02-13T02:55:25.593Z,100.00
2023-02-13T02:58:31.529Z,100.00
2023-02-13T03:01:20.688Z,100.00
2023-02-13T03:04:06.606Z,100.00
2023-02-13T03:06:44.572Z,100.00
2023-02-13T03:09:35.055Z,100.00
2023-02-13T03:12:22.087Z,100.00
2023-02-13T03:14:49.375Z,100.00
2023-02-13T03:17:39.940Z,100.00
2023-02-13T03:20:31.788Z,100.00
2023-02-13T03:23:14.531Z,100.00
2023-02-13T03:26:46.269Z,100.00
2023-02-13T03:29:55.990Z,100.00
2023-02-13T03:32:35.121Z,100.00
2023-02-13T03:35:34.474Z,100.00
2023-02-13T03:38:11.726Z,100.00
2023-02-13T03:41:10.758Z,100.00
2023-02-13T03:43:56.904Z,100.00
2023-02-13T03:46:28.719Z,100.00
2023-02-13T03:49:16.085Z,100.00
2023-02-13T03:51:45.114Z,100.00
2023-02-13T03:54:50.012Z,100.00
2023-02-13T03:57:38.630Z,100.00
2023-02-13T04:00:10.099Z,100.00
2023-02-13T04:02:52.008Z,100.00
2023-02-13T04:05:25.343Z,100.00
2023-02-13T04:07:52.348Z,100.00
2023-02-13T04:10:19.993Z,100.00
2023-02-13T04:13:11.246Z,100.00
2023-02-13T04:15:54.511Z,100.00
2023-02-13T04:18:25.054Z,100.00
2023-02-13T04:20:51.927Z,100.00
2023-02-13T04:23:22.826Z,100.00
2023-02-13T04:25:54.456Z,100.00
2023-02-13T04:28:21.502Z,100.00
2023-02-13T04:30:50.010Z,100.00
2023-02-13T04:33:16.837Z,100.00
2023-02-13T04:35:45.035Z,100.00
2023-02-13T04:38:11.718Z,100.00
2023-02-13T04:40:38.970Z,100.00
2023-02-13T04:43:05.888Z,100.00
2023-02-13T04:45:32.796Z,100.00
2023-02-13T04:48:00.463Z,100.00
2023-02-13T04:50:28.956Z,100.00
2023-02-13T04:52:57.792Z,100.00
2023-02-13T04:55:26.744Z,100.00
2023-02-13T04:57:55.527Z,100.00
2023-02-13T05:00:23.903Z,100.00
2023-02-13T05:02:50.693Z,100.00
2023-02-13T05:05:18.168Z,100.00
2023-02-13T05:07:45.023Z,100.00
2023-02-13T05:10:12.421Z,100.00
2023-02-13T05:12:39.283Z,100.00
2023-02-13T05:15:06.801Z,100.00
2023-02-13T05:17:33.682Z,100.00
2023-02-13T05:20:00.650Z,100.00
2023-02-13T05:22:46.617Z,100.00
2023-02-13T05:25:13.492Z,100.00
2023-02-13T05:27:40.047Z,100.00
2023-02-13T05:30:07.457Z,100.00
2023-02-13T05:32:35.464Z,100.00
2023-02-13T05:35:04.440Z,100.00
2023-02-13T05:37:32.361Z,100.00
2023-02-13T05:39:59.121Z,100.00
2023-02-13T05:42:25.830Z,100.00
2023-02-13T05:44:53.273Z,100.00
2023-02-13T05:47:20.126Z,100.00
2023-02-13T05:49:50.375Z,100.00
2023-02-13T05:52:17.241Z,100.00
2023-02-13T05:54:45.439Z,100.00
2023-02-13T05:57:12.047Z,100.00
2023-02-13T05:59:38.782Z,100.00
2023-02-13T06:02:05.495Z,100.00
2023-02-13T06:04:32.707Z,100.00
2023-02-13T06:06:59.826Z,100.00
2023-02-13T06:09:26.590Z,100.00
2023-02-13T06:11:53.546Z,100.00
2023-02-13T06:14:20.279Z,100.00
2023-02-13T06:16:46.964Z,100.00
2023-02-13T06:19:13.622Z,100.00
2023-02-13T06:21:40.376Z,100.00
2023-02-13T06:24:10.791Z,100.00
2023-02-13T06:26:37.891Z,100.00
2023-02-13T06:29:06.438Z,100.00
2023-02-13T06:31:33.738Z,100.00
2023-02-13T06:34:00.503Z,100.00
2023-02-13T06:36:27.315Z,100.00
2023-02-13T06:38:54.182Z,100.00
2023-02-13T06:41:20.915Z,100.00
2023-02-13T06:43:48.288Z,100.00
2023-02-13T06:46:15.188Z,100.00
2023-02-13T06:48:42.160Z,100.00
2023-02-13T06:51:09.505Z,100.00
2023-02-13T06:53:36.267Z,100.00
2023-02-13T06:56:06.280Z,100.00
2023-02-13T06:58:34.658Z,100.00
2023-02-13T07:01:01.516Z,100.00
2023-02-13T07:03:28.545Z,100.00
2023-02-13T07:05:56.527Z,100.00
2023-02-13T07:08:23.482Z,100.00
2023-02-13T07:10:50.286Z,100.00
2023-02-13T07:13:17.341Z,100.00
2023-02-13T07:15:44.784Z,100.00
2023-02-13T07:18:11.689Z,100.00
2023-02-13T07:20:38.431Z,100.00
2023-02-13T07:23:09.277Z,100.00
2023-02-13T07:25:36.133Z,100.00
2023-02-13T07:28:04.643Z,100.00
2023-02-13T07:30:33.457Z,100.00
2023-02-13T07:33:04.898Z,100.00
2023-02-13T07:35:32.860Z,100.00
2023-02-13T07:38:00.702Z,100.00
2023-02-13T07:40:28.076Z,100.00
2023-02-13T07:42:55.303Z,100.00
2023-02-13T07:45:22.396Z,100.00
2023-02-13T07:47:58.532Z,100.00
2023-02-13T07:50:25.511Z,100.00
2023-02-13T07:53:01.157Z,100.00
2023-02-13T07:55:30.365Z,100.00
2023-02-13T07:58:02.702Z,100.00
2023-02-13T08:00:30.212Z,100.00
2023-02-13T08:03:01.118Z,100.00
2023-02-13T08:05:32.180Z,100.00
2023-02-13T08:07:59.298Z,100.00
2023-02-13T08:10:44.917Z,100.00
2023-02-13T08:13:19.572Z,100.00
2023-02-13T08:15:48.425Z,100.00
2023-02-13T08:18:15.132Z,100.00
2023-02-13T08:20:42.125Z,100.00
2023-02-13T08:23:12.989Z,100.00
2023-02-13T08:25:40.382Z,100.00
2023-02-13T08:28:07.453Z,100.00
2023-02-13T08:30:34.618Z,100.00
2023-02-13T08:33:01.358Z,100.00
2023-02-13T08:35:29.846Z,100.00
2023-02-13T08:37:56.722Z,100.00
2023-02-13T08:40:25.436Z,100.00
2023-02-13T08:42:52.758Z,100.00
2023-02-13T08:45:19.664Z,100.00
2023-02-13T08:47:47.995Z,100.00
2023-02-13T08:50:15.080Z,100.00
2023-02-13T08:52:41.946Z,100.00
2023-02-13T08:55:08.746Z,100.00
2023-02-13T08:57:35.574Z,100.00
2023-02-13T09:00:02.449Z,100.00
2023-02-13T09:02:29.220Z,100.00
2023-02-13T09:04:56.164Z,100.00
2023-02-13T09:07:22.904Z,100.00
2023-02-13T09:09:49.684Z,100.00
2023-02-13T09:12:16.356Z,100.00
2023-02-13T09:14:43.228Z,100.00
2023-02-13T09:17:10.210Z,100.00
2023-02-13T09:19:36.866Z,100.00
2023-02-13T09:22:03.551Z,100.00
2023-02-13T09:24:33.353Z,100.00
2023-02-13T09:27:00.024Z,100.00
2023-02-13T09:29:30.350Z,100.00
2023-02-13T09:31:57.522Z,100.00
2023-02-13T09:34:24.576Z,100.00
2023-02-13T09:36:55.086Z,100.00
2023-02-13T09:39:21.953Z,100.00
2023-02-13T09:41:51.539Z,100.00
2023-02-13T09:44:35.127Z,100.00
2023-02-13T09:47:05.650Z,100.00
2023-02-13T09:49:35.554Z,100.00
2023-02-13T09:52:02.443Z,100.00
2023-02-13T09:54:32.160Z,100.00
2023-02-13T09:57:29.518Z,100.00
2023-02-13T10:00:13.164Z,100.00
2023-02-13T10:03:05.543Z,100.00
2023-02-13T10:05:58.791Z,100.00
2023-02-13T10:08:36.508Z,100.00
2023-02-13T10:11:21.593Z,100.00
2023-02-13T10:14:12.096Z,100.00
2023-02-13T10:16:53.691Z,100.00
2023-02-13T10:19:45.457Z,100.00
2023-02-13T10:22:18.151Z,100.00
2023-02-13T10:24:51.720Z,100.00
2023-02-13T10:27:23.367Z,100.00
2023-02-13T10:30:12.893Z,99.66
2023-02-13T10:33:13.587Z,99.24
2023-02-13T10:35:43.009Z,99.07
2023-02-13T10:38:17.048Z,99.30
2023-02-13T10:41:06.559Z,98.25
2023-02-13T10:43:55.564Z,96.55
2023-02-13T10:46:44.059Z,95.74
2023-02-13T10:49:39.660Z,96.33
2023-02-13T10:53:03.669Z,98.87
2023-02-13T10:55:59.884Z,97.63
2023-02-13T10:58:50.958Z,97.42
2023-02-13T11:01:46.830Z,95.88
2023-02-13T11:04:18.854Z,94.85
2023-02-13T11:07:00.474Z,94.08
2023-02-13T11:09:29.082Z,94.10
2023-02-13T11:11:55.877Z,95.46
2023-02-13T11:14:27.218Z,94.74
2023-02-13T11:17:06.731Z,93.56
2023-02-13T11:19:39.110Z,93.07
2023-02-13T11:22:13.683Z,91.90
2023-02-13T11:24:42.887Z,90.79
2023-02-13T11:27:13.986Z,91.03
2023-02-13T11:30:02.158Z,89.40
2023-02-13T11:32:34.992Z,88.75
2023-02-13T11:35:30.397Z,89.09
2023-02-13T11:38:26.220Z,88.21
2023-02-13T11:41:25.633Z,87.39
2023-02-13T11:44:01.511Z,87.88
2023-02-13T11:46:46.430Z,84.88
2023-02-13T11:49:25.804Z,84.37
2023-02-13T11:51:57.464Z,82.90
2023-02-13T11:54:29.956Z,84.05
2023-02-13T11:57:19.313Z,83.70
2023-02-13T11:59:48.178Z,83.08
2023-02-13T12:02:22.098Z,81.97
2023-02-13T12:04:51.393Z,83.54
2023-02-13T12:07:29.211Z,82.97
2023-02-13T12:10:11.122Z,82.22
2023-02-13T12:12:44.397Z,81.64
2023-02-13T12:15:19.242Z,80.61
2023-02-13T12:17:51.106Z,81.81
2023-02-13T12:20:18.420Z,80.91
2023-02-13T12:22:45.253Z,79.29
2023-02-13T12:25:27.708Z,79.39
2023-02-13T12:28:08.284Z,80.04
2023-02-13T12:30:55.549Z,79.37
2023-02-13T12:33:48.339Z,78.89
2023-02-13T12:36:33.922Z,78.93
2023-02-13T12:39:17.994Z,78.72
2023-02-13T12:42:01.066Z,77.14
2023-02-13T12:44:48.896Z,76.25
2023-02-13T12:47:24.127Z,76.83
2023-02-13T12:50:06.888Z,76.57
2023-02-13T12:52:49.291Z,76.80
2023-02-13T12:55:51.765Z,76.25
2023-02-13T12:58:37.641Z,75.42
2023-02-13T13:01:30.121Z,75.13
2023-02-13T13:03:58.858Z,75.90
2023-02-13T13:06:47.045Z,75.09
2023-02-13T13:09:28.399Z,76.42
2023-02-13T13:12:16.009Z,75.59
2023-02-13T13:15:12.191Z,76.15
2023-02-13T13:17:57.419Z,74.14
2023-02-13T13:20:51.658Z,73.68
2023-02-13T13:24:03.748Z,73.67
2023-02-13T13:26:37.434Z,72.90
2023-02-13T13:29:07.267Z,73.71
2023-02-13T13:31:37.423Z,73.65
2023-02-13T13:34:16.480Z,74.00
2023-02-13T13:36:54.584Z,74.23
2023-02-13T13:39:31.664Z,73.59
2023-02-13T13:42:14.495Z,74.09
2023-02-13T13:44:56.094Z,72.98
2023-02-13T13:47:41.525Z,73.89
2023-02-13T13:50:27.622Z,73.71
2023-02-13T13:53:15.586Z,73.43
2023-02-13T13:55:59.531Z,72.73
2023-02-13T13:58:42.653Z,73.14
2023-02-13T14:01:20.800Z,73.43
2023-02-13T14:03:50.035Z,73.20
2023-02-13T14:06:24.424Z,73.94
2023-02-13T14:08:58.869Z,72.42
2023-02-13T14:11:33.083Z,71.91
2023-02-13T14:14:01.355Z,72.72
2023-02-13T14:16:53.253Z,72.06
2023-02-13T14:19:39.837Z,71.48
2023-02-13T14:22:24.936Z,71.90
2023-02-13T14:24:57.166Z,71.84
2023-02-13T14:27:32.615Z,71.20
2023-02-13T14:30:01.425Z,71.24
2023-02-13T14:32:36.586Z,70.04
2023-02-13T14:35:17.139Z,70.22
2023-02-13T14:37:59.261Z,68.98
2023-02-13T14:40:31.864Z,68.40
2023-02-13T14:43:06.200Z,67.88
2023-02-13T14:45:46.913Z,68.93
2023-02-13T14:48:15.774Z,69.04
2023-02-13T14:50:47.964Z,69.23
2023-02-13T14:53:29.119Z,69.46
2023-02-13T14:56:02.722Z,69.97
2023-02-13T14:58:33.700Z,70.42
2023-02-13T15:01:22.172Z,70.21
2023-02-13T15:03:55.160Z,69.41
2023-02-13T15:06:30.020Z,69.08
2023-02-13T15:09:02.551Z,69.49
2023-02-13T15:11:39.526Z,69.93
2023-02-13T15:14:30.248Z,70.51
2023-02-13T15:17:19.718Z,70.31
2023-02-13T15:20:10.137Z,71.20
2023-02-13T15:22:40.215Z,70.56
2023-02-13T15:25:26.379Z,69.66
2023-02-13T15:27:56.540Z,71.19
2023-02-13T15:30:44.754Z,71.48
2023-02-13T15:33:16.979Z,71.57
2023-02-13T15:35:44.596Z,71.19
2023-02-13T15:38:29.473Z,70.87
2023-02-13T15:41:24.164Z,71.43
2023-02-13T15:44:00.536Z,71.42
2023-02-13T15:46:31.232Z,72.52
2023-02-13T15:49:10.542Z,71.87
2023-02-13T15:51:37.414Z,72.91
2023-02-13T15:54:07.894Z,72.72
2023-02-13T15:56:37.170Z,73.46
2023-02-13T15:59:04.234Z,73.32
2023-02-13T16:01:32.179Z,73.89
2023-02-13T16:04:05.357Z,75.27
2023-02-13T16:06:33.545Z,74.79
2023-02-13T16:09:01.657Z,76.08
2023-02-13T16:11:39.101Z,75.82
2023-02-13T16:14:24.885Z,76.26
2023-02-13T16:17:03.369Z,76.98
2023-02-13T16:19:41.100Z,76.69
2023-02-13T16:22:18.793Z,77.34
2023-02-13T16:24:52.718Z,77.35
2023-02-13T16:27:23.861Z,78.19
2023-02-13T16:29:56.857Z,78.12
2023-02-13T16:32:31.838Z,78.14
2023-02-13T16:35:32.549Z,78.74
2023-02-13T16:38:02.639Z,79.13
2023-02-13T16:40:43.035Z,78.97
2023-02-13T16:43:50.606Z,79.76
2023-02-13T16:46:39.605Z,79.79
2023-02-13T16:49:11.492Z,80.18
2023-02-13T16:51:52.067Z,80.53
2023-02-13T16:54:30.085Z,81.35
2023-02-13T16:57:24.218Z,81.44
2023-02-13T16:59:55.703Z,82.52
2023-02-13T17:02:25.626Z,83.27
2023-02-13T17:05:08.649Z,82.73
2023-02-13T17:07:52.684Z,82.80
2023-02-13T17:10:38.509Z,83.74
2023-02-13T17:13:11.530Z,83.63
2023-02-13T17:15:43.144Z,84.64
2023-02-13T17:18:12.508Z,84.79
2023-02-13T17:20:43.034Z,85.49
2023-02-13T17:23:22.732Z,85.97
2023-02-13T17:25:52.010Z,86.19
2023-02-13T17:28:24.385Z,86.18
2023-02-13T17:30:54.292Z,86.34
2023-02-13T17:33:29.721Z,86.47
2023-02-13T17:35:57.534Z,87.14
2023-02-13T17:38:24.464Z,88.20
2023-02-13T17:40:52.009Z,89.15
2023-02-13T17:43:39.446Z,89.20
2023-02-13T17:46:32.355Z,90.05
2023-02-13T17:48:59.198Z,90.58
2023-02-13T17:51:26.276Z,89.42
2023-02-13T17:53:55.918Z,89.42
2023-02-13T17:56:30.666Z,89.38
2023-02-13T17:59:00.188Z,90.36
2023-02-13T18:01:29.958Z,91.58
2023-02-13T18:04:04.854Z,91.63
2023-02-13T18:06:31.986Z,91.86
2023-02-13T18:09:13.866Z,91.40
2023-02-13T18:14:34.917Z,93.64
2023-02-13T18:17:02.510Z,93.66
2023-02-13T18:19:29.595Z,94.28
2023-02-13T18:21:59.642Z,94.06
2023-02-13T18:24:34.235Z,94.46
2023-02-13T18:27:02.353Z,93.50
2023-02-13T18:29:31.855Z,94.12
2023-02-13T18:31:59.315Z,94.57
2023-02-13T18:34:26.250Z,95.53
2023-02-13T18:36:55.089Z,95.40
2023-02-13T18:39:24.005Z,96.00
2023-02-13T18:42:02.549Z,96.09
2023-02-13T18:44:29.972Z,95.09
2023-02-13T18:47:00.312Z,95.08
2023-02-13T18:49:27.584Z,94.83
2023-02-13T18:51:57.458Z,95.33
2023-02-13T18:54:24.521Z,95.89
2023-02-13T18:56:51.239Z,95.54
2023-02-13T18:59:18.736Z,97.03
2023-02-13T19:01:46.456Z,97.11
2023-02-13T19:04:13.679Z,96.14
2023-02-13T19:06:42.442Z,94.97
2023-02-13T19:09:10.162Z,94.63
2023-02-13T19:11:39.272Z,95.44
2023-02-13T19:14:07.367Z,95.65
2023-02-13T19:16:36.058Z,96.75
2023-02-13T19:19:05.928Z,98.57
2023-02-13T19:21:34.973Z,98.36
2023-02-13T19:24:08.322Z,98.40
2023-02-13T19:26:35.566Z,96.88
2023-02-13T19:29:03.460Z,97.04
2023-02-13T19:31:33.703Z,97.16
2023-02-13T19:34:00.769Z,97.19
2023-02-13T19:36:30.273Z,97.06
2023-02-13T19:39:00.963Z,97.27
2023-02-13T19:41:29.166Z,97.80
2023-02-13T19:43:56.692Z,98.22
2023-02-13T19:46:26.877Z,98.69
2023-02-13T19:48:54.384Z,99.46
2023-02-13T19:51:30.258Z,99.64
2023-02-13T19:54:02.853Z,99.76
2023-02-13T19:56:30.943Z,100.00
2023-02-13T19:58:58.941Z,100.00
2023-02-13T20:01:29.587Z,100.00
2023-02-13T20:03:56.874Z,100.00
2023-02-13T20:06:38.313Z,100.00
2023-02-13T20:09:12.112Z,100.00
2023-02-13T20:11:42.685Z,100.00
2023-02-13T20:14:14.711Z,100.00
2023-02-13T20:16:42.951Z,100.00
2023-02-13T20:19:12.302Z,100.00
2023-02-13T20:21:41.418Z,100.00
2023-02-13T20:24:09.372Z,100.00
2023-02-13T20:26:36.828Z,100.00
2023-02-13T20:29:03.710Z,100.00
2023-02-13T20:31:31.516Z,100.00
2023-02-13T20:34:01.405Z,100.00
2023-02-13T20:36:30.661Z,100.00
2023-02-13T20:39:02.270Z,100.00
2023-02-13T20:41:31.499Z,100.00
2023-02-13T20:44:05.304Z,100.00
2023-02-13T20:46:36.720Z,100.00
2023-02-13T20:49:04.198Z,100.00
2023-02-13T20:51:32.251Z,100.00
2023-02-13T20:54:00.327Z,100.00
2023-02-13T20:56:28.662Z,100.00
2023-02-13T20:58:58.489Z,100.00
2023-02-13T21:01:29.045Z,100.00
2023-02-13T21:03:56.949Z,100.00
2023-02-13T21:06:28.794Z,100.00
2023-02-13T21:08:56.056Z,100.00
2023-02-13T21:11:23.963Z,100.00
2023-02-13T21:13:51.222Z,100.00
2023-02-13T21:16:24.131Z,100.00
2023-02-13T21:18:53.240Z,100.00
2023-02-13T21:21:22.537Z,100.00
2023-02-13T21:23:53.286Z,100.00
2023-02-13T21:26:21.242Z,100.00
2023-02-13T21:28:49.476Z,100.00
2023-02-13T21:31:25.671Z,100.00
2023-02-13T21:33:52.936Z,100.00
2023-02-13T21:36:19.927Z,100.00
2023-02-13T21:38:46.947Z,100.00
2023-02-13T21:41:16.140Z,100.00
2023-02-13T21:43:46.831Z,100.00
2023-02-13T21:46:23.318Z,100.00
2023-02-13T21:49:12.172Z,100.00
2023-02-13T21:51:39.247Z,100.00
2023-02-13T21:54:06.148Z,100.00
2023-02-13T21:56:38.378Z,100.00
2023-02-13T21:59:07.879Z,100.00
2023-02-13T22:01:45.608Z,100.00
2023-02-13T22:04:12.701Z,100.00
2023-02-13T22:06:40.730Z,100.00
2023-02-13T22:09:12.712Z,100.00
2023-02-13T22:11:40.773Z,100.00
2023-02-13T22:14:11.180Z,100.00
2023-02-13T22:16:39.103Z,100.00
2023-02-13T22:19:07.050Z,100.00
2023-02-13T22:21:37.569Z,100.00
2023-02-13T22:24:04.731Z,100.00
2023-02-13T22:26:36.926Z,100.00
2023-02-13T22:29:06.936Z,100.00
2023-02-13T22:31:35.260Z,100.00
2023-02-13T22:34:05.536Z,100.00
2023-02-13T22:36:34.617Z,100.00
2023-02-13T22:39:01.519Z,100.00
2023-02-13T22:41:28.849Z,100.00
2023-02-13T22:43:56.789Z,100.00
2023-02-13T22:46:29.023Z,100.00
2023-02-13T22:48:56.226Z,100.00
2023-02-13T22:51:29.778Z,100.00
2023-02-13T22:53:57.955Z,100.00
2023-02-13T22:56:25.864Z,100.00
2023-02-13T22:58:53.182Z,100.00
2023-02-13T23:01:22.068Z,100.00
2023-02-13T23:03:49.002Z,100.00
2023-02-13T23:06:16.303Z,100.00
2023-02-13T23:08:44.036Z,100.00
2023-02-13T23:11:31.976Z,100.00
2023-02-13T23:13:59.480Z,100.00
2023-02-13T23:16:26.935Z,100.00
2023-02-13T23:18:55.934Z,100.00
2023-02-13T23:21:23.886Z,100.00
2023-02-13T23:23:51.174Z,100.00
2023-02-13T23:26:18.332Z,100.00
2023-02-13T23:28:45.407Z,100.00
2023-02-13T23:31:12.762Z,100.00
2023-02-13T23:33:40.095Z,100.00
2023-02-13T23:36:07.745Z,100.00
2023-02-13T23:38:34.670Z,100.00
2023-02-13T23:41:09.010Z,100.00
2023-02-13T23:43:36.657Z,100.00
2023-02-13T23:46:05.357Z,100.00
2023-02-13T23:48:33.990Z,100.00
2023-02-13T23:51:01.636Z,100.00
2023-02-13T23:53:29.243Z,100.00
2023-02-13T23:55:56.370Z,100.00
2023-02-13T23:58:23.449Z,100.00
